sensor_id;sensor_type;location;lat;lon;timestamp;P1;durP1;ratioP1;P2;durP2;ratioP2
22614;SDS011;11474;50.790;0.298;2023-07-28T00:01:41;16.73;;;5.47;;
22614;SDS011;11474;50.790;0.298;2023-07-28T00:04:07;17.42;;;4.97;;
22614;SDS011;11474;50.790;0.298;2023-07-28T00:06:35;20.60;;;5.28;;
22614;SDS011;11474;50.790;0.298;2023-07-28T00:09:01;20.52;;;5.07;;
22614;SDS011;11474;50.790;0.298;2023-07-28T00:11:27;19.48;;;4.97;;
22614;SDS011;11474;50.790;0.298;2023-07-28T00:13:54;20.13;;;4.85;;
22614;SDS011;11474;50.790;0.298;2023-07-28T00:16:20;18.65;;;4.72;;
22614;SDS011;11474;50.790;0.298;2023-07-28T00:18:46;18.13;;;4.90;;
22614;SDS011;11474;50.790;0.298;2023-07-28T00:21:12;23.88;;;5.53;;
22614;SDS011;11474;50.790;0.298;2023-07-28T00:23:38;14.30;;;4.30;;
22614;SDS011;11474;50.790;0.298;2023-07-28T00:26:05;15.30;;;4.90;;
22614;SDS011;11474;50.790;0.298;2023-07-28T00:28:32;15.30;;;4.40;;
22614;SDS011;11474;50.790;0.298;2023-07-28T00:30:58;18.42;;;4.78;;
22614;SDS011;11474;50.790;0.298;2023-07-28T00:33:24;15.02;;;3.95;;
22614;SDS011;11474;50.790;0.298;2023-07-28T00:35:50;12.13;;;4.45;;
22614;SDS011;11474;50.790;0.298;2023-07-28T00:38:16;16.58;;;4.28;;
22614;SDS011;11474;50.790;0.298;2023-07-28T00:40:42;14.50;;;4.28;;
22614;SDS011;11474;50.790;0.298;2023-07-28T00:43:08;14.88;;;4.28;;
22614;SDS011;11474;50.790;0.298;2023-07-28T00:45:35;11.48;;;4.47;;
22614;SDS011;11474;50.790;0.298;2023-07-28T00:48:01;17.58;;;4.93;;
22614;SDS011;11474;50.790;0.298;2023-07-28T00:50:28;14.52;;;4.32;;
22614;SDS011;11474;50.790;0.298;2023-07-28T00:52:55;12.50;;;4.60;;
22614;SDS011;11474;50.790;0.298;2023-07-28T00:55:22;14.68;;;4.07;;
22614;SDS011;11474;50.790;0.298;2023-07-28T00:57:48;18.30;;;4.55;;
22614;SDS011;11474;50.790;0.298;2023-07-28T01:00:14;14.05;;;3.97;;
22614;SDS011;11474;50.790;0.298;2023-07-28T01:02:40;13.93;;;4.45;;
22614;SDS011;11474;50.790;0.298;2023-07-28T01:05:06;17.77;;;4.88;;
22614;SDS011;11474;50.790;0.298;2023-07-28T01:12:25;12.65;;;4.53;;
22614;SDS011;11474;50.790;0.298;2023-07-28T01:14:51;19.57;;;4.60;;
22614;SDS011;11474;50.790;0.298;2023-07-28T01:17:17;18.65;;;4.47;;
22614;SDS011;11474;50.790;0.298;2023-07-28T01:19:44;13.77;;;4.65;;
22614;SDS011;11474;50.790;0.298;2023-07-28T01:22:29;15.50;;;4.22;;
22614;SDS011;11474;50.790;0.298;2023-07-28T01:27:29;17.08;;;4.72;;
22614;SDS011;11474;50.790;0.298;2023-07-28T01:29:55;21.47;;;5.03;;
22614;SDS011;11474;50.790;0.298;2023-07-28T01:32:21;14.30;;;4.93;;
22614;SDS011;11474;50.790;0.298;2023-07-28T01:34:47;20.27;;;5.38;;
22614;SDS011;11474;50.790;0.298;2023-07-28T01:37:14;17.38;;;5.22;;
22614;SDS011;11474;50.790;0.298;2023-07-28T01:39:40;18.38;;;5.05;;
22614;SDS011;11474;50.790;0.298;2023-07-28T01:42:06;16.30;;;5.10;;
22614;SDS011;11474;50.790;0.298;2023-07-28T01:44:32;22.55;;;5.65;;
22614;SDS011;11474;50.790;0.298;2023-07-28T01:46:58;18.33;;;6.03;;
22614;SDS011;11474;50.790;0.298;2023-07-28T01:49:24;20.00;;;5.60;;
22614;SDS011;11474;50.790;0.298;2023-07-28T01:51:50;19.77;;;5.68;;
22614;SDS011;11474;50.790;0.298;2023-07-28T01:54:16;20.08;;;5.78;;
22614;SDS011;11474;50.790;0.298;2023-07-28T01:56:43;25.40;;;6.20;;
22614;SDS011;11474;50.790;0.298;2023-07-28T01:59:09;18.98;;;5.65;;
22614;SDS011;11474;50.790;0.298;2023-07-28T02:01:35;19.35;;;5.68;;
22614;SDS011;11474;50.790;0.298;2023-07-28T02:04:01;25.35;;;7.05;;
22614;SDS011;11474;50.790;0.298;2023-07-28T02:06:27;28.42;;;7.35;;
22614;SDS011;11474;50.790;0.298;2023-07-28T02:08:53;23.25;;;7.38;;
22614;SDS011;11474;50.790;0.298;2023-07-28T02:11:19;30.33;;;7.55;;
22614;SDS011;11474;50.790;0.298;2023-07-28T02:13:46;27.70;;;7.53;;
22614;SDS011;11474;50.790;0.298;2023-07-28T02:16:12;24.38;;;7.85;;
22614;SDS011;11474;50.790;0.298;2023-07-28T02:18:38;23.35;;;7.47;;
22614;SDS011;11474;50.790;0.298;2023-07-28T02:21:05;28.42;;;7.65;;
22614;SDS011;11474;50.790;0.298;2023-07-28T02:23:33;24.30;;;7.27;;
22614;SDS011;11474;50.790;0.298;2023-07-28T02:26:00;29.40;;;7.65;;
22614;SDS011;11474;50.790;0.298;2023-07-28T02:28:26;21.60;;;6.70;;
22614;SDS011;11474;50.790;0.298;2023-07-28T02:30:52;27.35;;;8.30;;
22614;SDS011;11474;50.790;0.298;2023-07-28T02:33:19;25.75;;;7.82;;
22614;SDS011;11474;50.790;0.298;2023-07-28T02:35:45;26.75;;;7.32;;
22614;SDS011;11474;50.790;0.298;2023-07-28T02:38:11;26.73;;;7.38;;
22614;SDS011;11474;50.790;0.298;2023-07-28T02:40:37;23.83;;;7.63;;
22614;SDS011;11474;50.790;0.298;2023-07-28T02:43:03;26.52;;;8.57;;
22614;SDS011;11474;50.790;0.298;2023-07-28T02:45:29;24.83;;;8.55;;
22614;SDS011;11474;50.790;0.298;2023-07-28T02:47:55;23.83;;;8.48;;
22614;SDS011;11474;50.790;0.298;2023-07-28T02:50:22;29.63;;;9.05;;
22614;SDS011;11474;50.790;0.298;2023-07-28T02:52:48;29.58;;;9.32;;
22614;SDS011;11474;50.790;0.298;2023-07-28T02:55:14;30.70;;;9.00;;
22614;SDS011;11474;50.790;0.298;2023-07-28T02:57:40;29.48;;;9.05;;
22614;SDS011;11474;50.790;0.298;2023-07-28T03:00:06;27.20;;;7.47;;
22614;SDS011;11474;50.790;0.298;2023-07-28T03:02:35;28.75;;;8.98;;
22614;SDS011;11474;50.790;0.298;2023-07-28T03:05:02;30.55;;;8.40;;
22614;SDS011;11474;50.790;0.298;2023-07-28T03:07:29;32.25;;;9.10;;
22614;SDS011;11474;50.790;0.298;2023-07-28T03:09:55;29.17;;;7.88;;
22614;SDS011;11474;50.790;0.298;2023-07-28T03:12:21;26.42;;;8.77;;
22614;SDS011;11474;50.790;0.298;2023-07-28T03:14:47;32.10;;;9.97;;
22614;SDS011;11474;50.790;0.298;2023-07-28T03:17:14;34.13;;;11.77;;
22614;SDS011;11474;50.790;0.298;2023-07-28T03:19:40;32.58;;;12.10;;
22614;SDS011;11474;50.790;0.298;2023-07-28T03:22:06;30.77;;;11.30;;
22614;SDS011;11474;50.790;0.298;2023-07-28T03:24:32;34.10;;;10.85;;
22614;SDS011;11474;50.790;0.298;2023-07-28T03:26:58;34.95;;;12.85;;
22614;SDS011;11474;50.790;0.298;2023-07-28T03:29:24;39.28;;;11.32;;
22614;SDS011;11474;50.790;0.298;2023-07-28T03:31:50;32.42;;;11.45;;
22614;SDS011;11474;50.790;0.298;2023-07-28T03:34:16;37.97;;;13.65;;
22614;SDS011;11474;50.790;0.298;2023-07-28T03:36:42;35.63;;;12.77;;
22614;SDS011;11474;50.790;0.298;2023-07-28T03:39:08;34.33;;;13.40;;
22614;SDS011;11474;50.790;0.298;2023-07-28T03:41:34;34.65;;;14.35;;
22614;SDS011;11474;50.790;0.298;2023-07-28T03:44:01;42.03;;;14.52;;
22614;SDS011;11474;50.790;0.298;2023-07-28T03:46:27;33.33;;;12.77;;
22614;SDS011;11474;50.790;0.298;2023-07-28T03:48:53;36.53;;;13.27;;
22614;SDS011;11474;50.790;0.298;2023-07-28T03:51:19;40.35;;;11.85;;
22614;SDS011;11474;50.790;0.298;2023-07-28T03:53:45;40.67;;;10.55;;
22614;SDS011;11474;50.790;0.298;2023-07-28T03:56:11;33.38;;;10.95;;
22614;SDS011;11474;50.790;0.298;2023-07-28T03:58:38;37.10;;;13.00;;
22614;SDS011;11474;50.790;0.298;2023-07-28T04:01:04;32.13;;;11.53;;
22614;SDS011;11474;50.790;0.298;2023-07-28T04:03:32;41.60;;;13.55;;
22614;SDS011;11474;50.790;0.298;2023-07-28T04:05:58;40.90;;;10.97;;
22614;SDS011;11474;50.790;0.298;2023-07-28T04:08:24;38.83;;;10.93;;
22614;SDS011;11474;50.790;0.298;2023-07-28T04:10:50;38.90;;;9.88;;
22614;SDS011;11474;50.790;0.298;2023-07-28T04:13:16;38.97;;;13.65;;
22614;SDS011;11474;50.790;0.298;2023-07-28T04:15:42;36.53;;;9.98;;
22614;SDS011;11474;50.790;0.298;2023-07-28T04:18:09;34.17;;;11.32;;
22614;SDS011;11474;50.790;0.298;2023-07-28T04:20:35;39.60;;;9.82;;
22614;SDS011;11474;50.790;0.298;2023-07-28T04:23:01;42.72;;;13.77;;
22614;SDS011;11474;50.790;0.298;2023-07-28T04:25:27;36.92;;;9.63;;
22614;SDS011;11474;50.790;0.298;2023-07-28T04:27:53;32.80;;;9.98;;
22614;SDS011;11474;50.790;0.298;2023-07-28T04:30:21;33.58;;;10.02;;
22614;SDS011;11474;50.790;0.298;2023-07-28T04:32:47;37.75;;;11.43;;
22614;SDS011;11474;50.790;0.298;2023-07-28T04:35:13;42.60;;;11.23;;
22614;SDS011;11474;50.790;0.298;2023-07-28T04:37:39;31.08;;;9.80;;
22614;SDS011;11474;50.790;0.298;2023-07-28T04:40:05;33.80;;;12.10;;
22614;SDS011;11474;50.790;0.298;2023-07-28T04:42:33;32.85;;;10.60;;
22614;SDS011;11474;50.790;0.298;2023-07-28T04:44:59;36.45;;;11.50;;
22614;SDS011;11474;50.790;0.298;2023-07-28T04:47:25;35.60;;;11.43;;
22614;SDS011;11474;50.790;0.298;2023-07-28T04:49:51;35.88;;;10.85;;
22614;SDS011;11474;50.790;0.298;2023-07-28T04:52:17;31.63;;;10.88;;
22614;SDS011;11474;50.790;0.298;2023-07-28T04:54:44;27.73;;;10.50;;
22614;SDS011;11474;50.790;0.298;2023-07-28T04:57:10;22.77;;;8.43;;
22614;SDS011;11474;50.790;0.298;2023-07-28T04:59:36;23.00;;;8.27;;
22614;SDS011;11474;50.790;0.298;2023-07-28T05:02:02;17.70;;;7.43;;
22614;SDS011;11474;50.790;0.298;2023-07-28T05:04:28;21.80;;;6.32;;
22614;SDS011;11474;50.790;0.298;2023-07-28T05:06:54;18.75;;;6.20;;
22614;SDS011;11474;50.790;0.298;2023-07-28T05:09:21;14.77;;;5.03;;
22614;SDS011;11474;50.790;0.298;2023-07-28T05:11:47;14.05;;;5.15;;
22614;SDS011;11474;50.790;0.298;2023-07-28T05:14:13;16.30;;;5.57;;
22614;SDS011;11474;50.790;0.298;2023-07-28T05:16:39;14.13;;;5.20;;
22614;SDS011;11474;50.790;0.298;2023-07-28T05:19:05;15.27;;;5.43;;
22614;SDS011;11474;50.790;0.298;2023-07-28T05:21:32;15.23;;;5.20;;
22614;SDS011;11474;50.790;0.298;2023-07-28T05:23:58;15.43;;;5.82;;
22614;SDS011;11474;50.790;0.298;2023-07-28T05:26:25;12.70;;;5.05;;
22614;SDS011;11474;50.790;0.298;2023-07-28T05:28:51;13.13;;;4.75;;
22614;SDS011;11474;50.790;0.298;2023-07-28T05:31:17;10.93;;;3.53;;
22614;SDS011;11474;50.790;0.298;2023-07-28T05:33:43;12.60;;;3.88;;
22614;SDS011;11474;50.790;0.298;2023-07-28T05:36:09;10.70;;;3.80;;
22614;SDS011;11474;50.790;0.298;2023-07-28T05:38:35;8.30;;;3.28;;
22614;SDS011;11474;50.790;0.298;2023-07-28T05:41:02;9.63;;;3.28;;
22614;SDS011;11474;50.790;0.298;2023-07-28T05:43:29;6.53;;;3.00;;
22614;SDS011;11474;50.790;0.298;2023-07-28T05:45:56;6.50;;;2.65;;
22614;SDS011;11474;50.790;0.298;2023-07-28T05:48:22;8.95;;;2.70;;
22614;SDS011;11474;50.790;0.298;2023-07-28T05:50:48;9.63;;;3.08;;
22614;SDS011;11474;50.790;0.298;2023-07-28T05:53:16;8.18;;;3.05;;
22614;SDS011;11474;50.790;0.298;2023-07-28T05:55:42;10.00;;;2.70;;
22614;SDS011;11474;50.790;0.298;2023-07-28T05:58:08;7.10;;;2.53;;
22614;SDS011;11474;50.790;0.298;2023-07-28T06:00:34;6.03;;;2.40;;
22614;SDS011;11474;50.790;0.298;2023-07-28T06:03:02;5.68;;;2.13;;
22614;SDS011;11474;50.790;0.298;2023-07-28T06:05:28;3.38;;;1.90;;
22614;SDS011;11474;50.790;0.298;2023-07-28T06:07:54;5.25;;;1.85;;
22614;SDS011;11474;50.790;0.298;2023-07-28T06:10:20;5.50;;;1.95;;
22614;SDS011;11474;50.790;0.298;2023-07-28T06:12:47;8.15;;;2.15;;
22614;SDS011;11474;50.790;0.298;2023-07-28T06:15:13;4.70;;;2.10;;
22614;SDS011;11474;50.790;0.298;2023-07-28T06:17:39;3.42;;;1.88;;
22614;SDS011;11474;50.790;0.298;2023-07-28T06:20:05;6.82;;;1.92;;
22614;SDS011;11474;50.790;0.298;2023-07-28T06:22:32;7.45;;;2.22;;
22614;SDS011;11474;50.790;0.298;2023-07-28T06:24:58;2.90;;;1.80;;
22614;SDS011;11474;50.790;0.298;2023-07-28T06:27:24;6.55;;;2.42;;
22614;SDS011;11474;50.790;0.298;2023-07-28T06:29:50;4.47;;;2.00;;
22614;SDS011;11474;50.790;0.298;2023-07-28T06:32:16;3.88;;;1.88;;
22614;SDS011;11474;50.790;0.298;2023-07-28T06:34:42;4.68;;;2.05;;
22614;SDS011;11474;50.790;0.298;2023-07-28T06:37:09;4.65;;;2.22;;
22614;SDS011;11474;50.790;0.298;2023-07-28T06:39:35;6.28;;;2.42;;
22614;SDS011;11474;50.790;0.298;2023-07-28T06:42:01;10.15;;;2.35;;
22614;SDS011;11474;50.790;0.298;2023-07-28T06:44:27;7.28;;;2.47;;
22614;SDS011;11474;50.790;0.298;2023-07-28T06:46:53;7.38;;;2.60;;
22614;SDS011;11474;50.790;0.298;2023-07-28T06:49:19;9.07;;;2.53;;
22614;SDS011;11474;50.790;0.298;2023-07-28T06:51:45;10.15;;;3.00;;
22614;SDS011;11474;50.790;0.298;2023-07-28T06:54:11;8.90;;;2.90;;
22614;SDS011;11474;50.790;0.298;2023-07-28T06:56:38;6.03;;;2.30;;
22614;SDS011;11474;50.790;0.298;2023-07-28T06:59:04;7.30;;;2.55;;
22614;SDS011;11474;50.790;0.298;2023-07-28T07:01:31;7.13;;;2.60;;
22614;SDS011;11474;50.790;0.298;2023-07-28T07:03:57;8.95;;;2.55;;
22614;SDS011;11474;50.790;0.298;2023-07-28T07:06:23;9.60;;;2.55;;
22614;SDS011;11474;50.790;0.298;2023-07-28T07:08:49;7.45;;;2.15;;
22614;SDS011;11474;50.790;0.298;2023-07-28T07:11:16;12.05;;;2.50;;
22614;SDS011;11474;50.790;0.298;2023-07-28T07:13:42;9.68;;;2.53;;
22614;SDS011;11474;50.790;0.298;2023-07-28T07:16:17;7.80;;;2.60;;
22614;SDS011;11474;50.790;0.298;2023-07-28T07:18:43;10.35;;;2.03;;
22614;SDS011;11474;50.790;0.298;2023-07-28T07:21:09;7.90;;;1.87;;
22614;SDS011;11474;50.790;0.298;2023-07-28T07:23:36;5.07;;;1.60;;
22614;SDS011;11474;50.790;0.298;2023-07-28T07:26:02;6.90;;;1.55;;
22614;SDS011;11474;50.790;0.298;2023-07-28T07:28:29;6.57;;;1.80;;
22614;SDS011;11474;50.790;0.298;2023-07-28T07:30:55;7.95;;;1.90;;
22614;SDS011;11474;50.790;0.298;2023-07-28T07:33:21;6.90;;;2.22;;
22614;SDS011;11474;50.790;0.298;2023-07-28T07:35:48;10.30;;;2.30;;
22614;SDS011;11474;50.790;0.298;2023-07-28T07:38:14;8.35;;;2.10;;
22614;SDS011;11474;50.790;0.298;2023-07-28T07:40:40;5.53;;;2.30;;
22614;SDS011;11474;50.790;0.298;2023-07-28T07:43:06;8.10;;;2.03;;
22614;SDS011;11474;50.790;0.298;2023-07-28T07:45:32;8.18;;;1.90;;
22614;SDS011;11474;50.790;0.298;2023-07-28T07:47:58;9.20;;;2.08;;
22614;SDS011;11474;50.790;0.298;2023-07-28T07:50:25;5.60;;;1.85;;
22614;SDS011;11474;50.790;0.298;2023-07-28T07:52:51;5.35;;;1.55;;
22614;SDS011;11474;50.790;0.298;2023-07-28T07:55:17;5.00;;;1.60;;
22614;SDS011;11474;50.790;0.298;2023-07-28T07:57:43;4.63;;;1.60;;
22614;SDS011;11474;50.790;0.298;2023-07-28T08:00:09;4.28;;;1.63;;
22614;SDS011;11474;50.790;0.298;2023-07-28T08:02:36;4.68;;;1.60;;
22614;SDS011;11474;50.790;0.298;2023-07-28T08:05:02;6.68;;;1.90;;
22614;SDS011;11474;50.790;0.298;2023-07-28T08:07:28;5.43;;;1.90;;
22614;SDS011;11474;50.790;0.298;2023-07-28T08:09:55;5.82;;;1.95;;
22614;SDS011;11474;50.790;0.298;2023-07-28T08:12:21;14.18;;;2.88;;
22614;SDS011;11474;50.790;0.298;2023-07-28T08:14:48;5.38;;;1.70;;
22614;SDS011;11474;50.790;0.298;2023-07-28T08:17:14;5.80;;;2.10;;
22614;SDS011;11474;50.790;0.298;2023-07-28T08:19:40;6.30;;;2.40;;
22614;SDS011;11474;50.790;0.298;2023-07-28T08:22:06;6.07;;;2.10;;
22614;SDS011;11474;50.790;0.298;2023-07-28T08:24:32;7.50;;;2.30;;
22614;SDS011;11474;50.790;0.298;2023-07-28T08:26:59;9.15;;;2.38;;
22614;SDS011;11474;50.790;0.298;2023-07-28T08:29:25;8.85;;;2.50;;
22614;SDS011;11474;50.790;0.298;2023-07-28T08:31:51;11.55;;;2.97;;
22614;SDS011;11474;50.790;0.298;2023-07-28T08:34:17;6.57;;;2.70;;
22614;SDS011;11474;50.790;0.298;2023-07-28T08:36:43;10.40;;;3.47;;
22614;SDS011;11474;50.790;0.298;2023-07-28T08:39:09;10.20;;;3.00;;
22614;SDS011;11474;50.790;0.298;2023-07-28T08:41:37;8.02;;;2.95;;
22614;SDS011;11474;50.790;0.298;2023-07-28T08:44:03;8.40;;;2.92;;
22614;SDS011;11474;50.790;0.298;2023-07-28T08:46:29;11.50;;;3.00;;
22614;SDS011;11474;50.790;0.298;2023-07-28T08:48:56;8.88;;;3.17;;
22614;SDS011;11474;50.790;0.298;2023-07-28T08:51:22;7.70;;;3.13;;
22614;SDS011;11474;50.790;0.298;2023-07-28T08:53:48;9.07;;;2.90;;
22614;SDS011;11474;50.790;0.298;2023-07-28T08:56:15;10.07;;;3.08;;
22614;SDS011;11474;50.790;0.298;2023-07-28T08:58:41;11.10;;;2.85;;
22614;SDS011;11474;50.790;0.298;2023-07-28T09:01:07;8.60;;;2.75;;
22614;SDS011;11474;50.790;0.298;2023-07-28T09:03:34;7.32;;;2.88;;
22614;SDS011;11474;50.790;0.298;2023-07-28T09:06:06;8.88;;;2.60;;
22614;SDS011;11474;50.790;0.298;2023-07-28T09:08:34;6.65;;;2.20;;
22614;SDS011;11474;50.790;0.298;2023-07-28T09:11:01;7.47;;;2.50;;
22614;SDS011;11474;50.790;0.298;2023-07-28T09:13:34;10.55;;;2.47;;
22614;SDS011;11474;50.790;0.298;2023-07-28T09:16:01;6.87;;;2.27;;
22614;SDS011;11474;50.790;0.298;2023-07-28T09:18:28;6.60;;;2.40;;
22614;SDS011;11474;50.790;0.298;2023-07-28T09:20:54;8.43;;;2.38;;
22614;SDS011;11474;50.790;0.298;2023-07-28T09:23:27;7.28;;;2.47;;
22614;SDS011;11474;50.790;0.298;2023-07-28T09:25:58;7.15;;;2.30;;
22614;SDS011;11474;50.790;0.298;2023-07-28T09:28:44;8.00;;;2.65;;
22614;SDS011;11474;50.790;0.298;2023-07-28T09:31:10;6.72;;;2.08;;
22614;SDS011;11474;50.790;0.298;2023-07-28T09:33:37;5.53;;;2.03;;
22614;SDS011;11474;50.790;0.298;2023-07-28T09:36:08;8.18;;;2.13;;
22614;SDS011;11474;50.790;0.298;2023-07-28T09:38:38;3.97;;;1.58;;
22614;SDS011;11474;50.790;0.298;2023-07-28T09:41:08;4.47;;;1.60;;
22614;SDS011;11474;50.790;0.298;2023-07-28T09:43:36;4.88;;;1.67;;
22614;SDS011;11474;50.790;0.298;2023-07-28T09:46:06;4.70;;;1.60;;
22614;SDS011;11474;50.790;0.298;2023-07-28T09:48:32;12.13;;;7.30;;
22614;SDS011;11474;50.790;0.298;2023-07-28T09:51:06;5.65;;;1.67;;
22614;SDS011;11474;50.790;0.298;2023-07-28T09:53:35;3.95;;;2.10;;
22614;SDS011;11474;50.790;0.298;2023-07-28T09:56:02;5.28;;;1.75;;
22614;SDS011;11474;50.790;0.298;2023-07-28T09:58:30;6.40;;;2.17;;
22614;SDS011;11474;50.790;0.298;2023-07-28T10:00:59;7.18;;;2.42;;
22614;SDS011;11474;50.790;0.298;2023-07-28T10:03:26;7.60;;;2.13;;
22614;SDS011;11474;50.790;0.298;2023-07-28T10:05:52;3.70;;;2.00;;
22614;SDS011;11474;50.790;0.298;2023-07-28T10:08:18;7.07;;;2.40;;
22614;SDS011;11474;50.790;0.298;2023-07-28T10:10:45;7.10;;;2.20;;
22614;SDS011;11474;50.790;0.298;2023-07-28T10:13:18;5.53;;;2.03;;
22614;SDS011;11474;50.790;0.298;2023-07-28T10:15:45;6.05;;;1.95;;
22614;SDS011;11474;50.790;0.298;2023-07-28T10:18:13;7.63;;;2.03;;
22614;SDS011;11474;50.790;0.298;2023-07-28T10:20:40;7.75;;;2.45;;
22614;SDS011;11474;50.790;0.298;2023-07-28T10:23:14;8.63;;;2.38;;
22614;SDS011;11474;50.790;0.298;2023-07-28T10:25:42;4.60;;;1.75;;
22614;SDS011;11474;50.790;0.298;2023-07-28T10:30:56;6.22;;;2.40;;
22614;SDS011;11474;50.790;0.298;2023-07-28T10:33:26;7.80;;;2.40;;
22614;SDS011;11474;50.790;0.298;2023-07-28T10:35:52;3.58;;;1.90;;
22614;SDS011;11474;50.790;0.298;2023-07-28T10:38:31;6.22;;;1.70;;
22614;SDS011;11474;50.790;0.298;2023-07-28T10:41:09;5.15;;;1.63;;
22614;SDS011;11474;50.790;0.298;2023-07-28T10:43:35;4.15;;;1.60;;
22614;SDS011;11474;50.790;0.298;2023-07-28T10:46:01;3.60;;;1.70;;
22614;SDS011;11474;50.790;0.298;2023-07-28T10:48:31;4.28;;;1.52;;
22614;SDS011;11474;50.790;0.298;2023-07-28T10:50:57;8.52;;;1.80;;
22614;SDS011;11474;50.790;0.298;2023-07-28T10:53:23;4.55;;;1.60;;
22614;SDS011;11474;50.790;0.298;2023-07-28T10:55:49;4.13;;;1.70;;
22614;SDS011;11474;50.790;0.298;2023-07-28T10:58:15;4.78;;;1.42;;
22614;SDS011;11474;50.790;0.298;2023-07-28T11:00:41;3.10;;;1.50;;
22614;SDS011;11474;50.790;0.298;2023-07-28T11:03:08;4.28;;;1.98;;
22614;SDS011;11474;50.790;0.298;2023-07-28T11:05:35;4.78;;;1.95;;
22614;SDS011;11474;50.790;0.298;2023-07-28T11:08:02;5.25;;;2.03;;
22614;SDS011;11474;50.790;0.298;2023-07-28T11:10:29;6.20;;;2.10;;
22614;SDS011;11474;50.790;0.298;2023-07-28T11:12:56;11.32;;;2.78;;
22614;SDS011;11474;50.790;0.298;2023-07-28T11:15:24;7.17;;;2.40;;
22614;SDS011;11474;50.790;0.298;2023-07-28T11:17:50;7.95;;;2.40;;
22614;SDS011;11474;50.790;0.298;2023-07-28T11:20:17;8.82;;;2.80;;
22614;SDS011;11474;50.790;0.298;2023-07-28T11:22:44;6.07;;;2.07;;
22614;SDS011;11474;50.790;0.298;2023-07-28T11:25:11;6.68;;;2.20;;
22614;SDS011;11474;50.790;0.298;2023-07-28T11:27:38;8.70;;;2.42;;
22614;SDS011;11474;50.790;0.298;2023-07-28T11:30:04;7.40;;;2.20;;
22614;SDS011;11474;50.790;0.298;2023-07-28T11:32:33;7.15;;;1.98;;
22614;SDS011;11474;50.790;0.298;2023-07-28T11:35:06;8.52;;;2.05;;
22614;SDS011;11474;50.790;0.298;2023-07-28T11:37:34;6.07;;;2.10;;
22614;SDS011;11474;50.790;0.298;2023-07-28T11:40:04;6.32;;;2.00;;
22614;SDS011;11474;50.790;0.298;2023-07-28T11:42:37;8.15;;;1.92;;
22614;SDS011;11474;50.790;0.298;2023-07-28T11:45:03;6.38;;;1.83;;
22614;SDS011;11474;50.790;0.298;2023-07-28T11:47:30;5.30;;;1.52;;
22614;SDS011;11474;50.790;0.298;2023-07-28T11:49:57;7.18;;;1.85;;
22614;SDS011;11474;50.790;0.298;2023-07-28T11:52:24;7.35;;;1.80;;
22614;SDS011;11474;50.790;0.298;2023-07-28T11:54:51;8.10;;;1.98;;
22614;SDS011;11474;50.790;0.298;2023-07-28T11:57:18;5.15;;;2.20;;
22614;SDS011;11474;50.790;0.298;2023-07-28T11:59:44;6.07;;;1.77;;
22614;SDS011;11474;50.790;0.298;2023-07-28T12:02:10;4.78;;;1.90;;
22614;SDS011;11474;50.790;0.298;2023-07-28T12:04:37;4.45;;;1.63;;
22614;SDS011;11474;50.790;0.298;2023-07-28T12:07:09;7.28;;;2.13;;
22614;SDS011;11474;50.790;0.298;2023-07-28T12:12:16;3.97;;;1.60;;
22614;SDS011;11474;50.790;0.298;2023-07-28T12:14:43;10.73;;;2.03;;
22614;SDS011;11474;50.790;0.298;2023-07-28T12:17:15;5.00;;;2.00;;
22614;SDS011;11474;50.790;0.298;2023-07-28T12:19:57;5.90;;;2.25;;
22614;SDS011;11474;50.790;0.298;2023-07-28T12:22:23;5.88;;;1.85;;
22614;SDS011;11474;50.790;0.298;2023-07-28T12:24:49;4.72;;;1.90;;
22614;SDS011;11474;50.790;0.298;2023-07-28T12:27:15;3.95;;;1.65;;
22614;SDS011;11474;50.790;0.298;2023-07-28T12:29:41;4.68;;;1.83;;
22614;SDS011;11474;50.790;0.298;2023-07-28T12:32:08;5.03;;;1.80;;
22614;SDS011;11474;50.790;0.298;2023-07-28T12:34:34;6.28;;;2.22;;
22614;SDS011;11474;50.790;0.298;2023-07-28T12:37:00;4.05;;;1.63;;
22614;SDS011;11474;50.790;0.298;2023-07-28T12:39:26;5.30;;;1.60;;
22614;SDS011;11474;50.790;0.298;2023-07-28T12:41:54;5.75;;;1.90;;
22614;SDS011;11474;50.790;0.298;2023-07-28T12:44:20;6.38;;;2.10;;
22614;SDS011;11474;50.790;0.298;2023-07-28T12:46:46;5.10;;;2.00;;
22614;SDS011;11474;50.790;0.298;2023-07-28T12:49:12;6.93;;;1.95;;
22614;SDS011;11474;50.790;0.298;2023-07-28T12:51:40;5.03;;;1.90;;
22614;SDS011;11474;50.790;0.298;2023-07-28T12:54:07;6.70;;;1.90;;
22614;SDS011;11474;50.790;0.298;2023-07-28T12:56:33;6.70;;;1.85;;
22614;SDS011;11474;50.790;0.298;2023-07-28T12:58:59;6.63;;;1.70;;
22614;SDS011;11474;50.790;0.298;2023-07-28T13:01:25;5.45;;;1.60;;
22614;SDS011;11474;50.790;0.298;2023-07-28T13:03:51;3.23;;;1.87;;
22614;SDS011;11474;50.790;0.298;2023-07-28T13:06:18;5.30;;;1.73;;
22614;SDS011;11474;50.790;0.298;2023-07-28T13:08:45;2.50;;;1.40;;
22614;SDS011;11474;50.790;0.298;2023-07-28T13:11:11;4.68;;;1.67;;
22614;SDS011;11474;50.790;0.298;2023-07-28T13:13:39;3.05;;;1.50;;
22614;SDS011;11474;50.790;0.298;2023-07-28T13:16:06;3.00;;;1.60;;
22614;SDS011;11474;50.790;0.298;2023-07-28T13:18:32;5.80;;;1.80;;
22614;SDS011;11474;50.790;0.298;2023-07-28T13:20:58;5.70;;;1.63;;
22614;SDS011;11474;50.790;0.298;2023-07-28T13:23:24;3.78;;;1.65;;
22614;SDS011;11474;50.790;0.298;2023-07-28T13:25:51;3.72;;;1.73;;
22614;SDS011;11474;50.790;0.298;2023-07-28T13:28:17;6.07;;;1.70;;
22614;SDS011;11474;50.790;0.298;2023-07-28T13:30:44;4.53;;;1.55;;
22614;SDS011;11474;50.790;0.298;2023-07-28T13:33:10;3.55;;;1.65;;
22614;SDS011;11474;50.790;0.298;2023-07-28T13:35:36;4.53;;;1.50;;
22614;SDS011;11474;50.790;0.298;2023-07-28T13:38:04;4.75;;;1.48;;
22614;SDS011;11474;50.790;0.298;2023-07-28T13:40:31;4.38;;;1.60;;
22614;SDS011;11474;50.790;0.298;2023-07-28T13:42:59;4.97;;;2.30;;
22614;SDS011;11474;50.790;0.298;2023-07-28T13:45:26;3.88;;;1.65;;
22614;SDS011;11474;50.790;0.298;2023-07-28T13:47:52;4.70;;;1.80;;
22614;SDS011;11474;50.790;0.298;2023-07-28T13:50:18;3.80;;;1.60;;
22614;SDS011;11474;50.790;0.298;2023-07-28T13:52:44;5.25;;;1.88;;
22614;SDS011;11474;50.790;0.298;2023-07-28T13:55:11;5.88;;;2.00;;
22614;SDS011;11474;50.790;0.298;2023-07-28T13:57:37;6.43;;;2.03;;
22614;SDS011;11474;50.790;0.298;2023-07-28T14:00:04;5.22;;;2.22;;
22614;SDS011;11474;50.790;0.298;2023-07-28T14:02:37;5.07;;;2.00;;
22614;SDS011;11474;50.790;0.298;2023-07-28T14:05:03;5.40;;;2.10;;
22614;SDS011;11474;50.790;0.298;2023-07-28T14:07:30;7.35;;;2.40;;
22614;SDS011;11474;50.790;0.298;2023-07-28T14:09:56;5.70;;;1.90;;
22614;SDS011;11474;50.790;0.298;2023-07-28T14:12:22;4.28;;;2.08;;
22614;SDS011;11474;50.790;0.298;2023-07-28T14:14:49;4.72;;;2.00;;
22614;SDS011;11474;50.790;0.298;2023-07-28T14:17:15;4.82;;;2.00;;
22614;SDS011;11474;50.790;0.298;2023-07-28T14:19:41;4.85;;;2.13;;
22614;SDS011;11474;50.790;0.298;2023-07-28T14:22:07;6.13;;;2.42;;
22614;SDS011;11474;50.790;0.298;2023-07-28T14:24:34;4.95;;;2.20;;
22614;SDS011;11474;50.790;0.298;2023-07-28T14:27:01;5.22;;;2.35;;
22614;SDS011;11474;50.790;0.298;2023-07-28T14:29:28;6.57;;;2.33;;
22614;SDS011;11474;50.790;0.298;2023-07-28T14:31:54;6.05;;;2.00;;
22614;SDS011;11474;50.790;0.298;2023-07-28T14:34:20;6.60;;;2.47;;
22614;SDS011;11474;50.790;0.298;2023-07-28T14:36:46;5.25;;;2.00;;
22614;SDS011;11474;50.790;0.298;2023-07-28T14:39:12;6.85;;;1.92;;
22614;SDS011;11474;50.790;0.298;2023-07-28T14:41:39;7.93;;;2.25;;
22614;SDS011;11474;50.790;0.298;2023-07-28T14:44:05;5.10;;;1.83;;
22614;SDS011;11474;50.790;0.298;2023-07-28T14:46:31;4.40;;;1.80;;
22614;SDS011;11474;50.790;0.298;2023-07-28T14:48:57;3.42;;;1.40;;
22614;SDS011;11474;50.790;0.298;2023-07-28T14:51:23;4.22;;;1.73;;